createdAt,value
2023-01-31T00:03:56.717Z,6.70
2023-01-31T00:08:56.413Z,6.80
2023-01-31T00:13:55.854Z,6.70
2023-01-31T00:18:55.904Z,6.70
2023-01-31T00:23:55.903Z,6.90
2023-01-31T00:28:56.185Z,6.70
2023-01-31T00:33:56.972Z,6.70
2023-01-31T00:38:57.290Z,6.60
2023-01-31T00:43:55.529Z,6.80
2023-01-31T00:48:56.904Z,6.90
2023-01-31T00:53:56.695Z,6.70
2023-01-31T00:58:56.075Z,6.70
2023-01-31T01:03:57.113Z,6.70
2023-01-31T01:08:56.786Z,6.90
2023-01-31T01:13:55.417Z,6.60
2023-01-31T01:18:56.361Z,6.60
2023-01-31T01:23:58.855Z,6.80
2023-01-31T01:28:59.160Z,6.60
2023-01-31T01:34:00.716Z,6.60
2023-01-31T01:38:58.968Z,6.60
2023-01-31T01:43:59.833Z,6.60
2023-01-31T01:49:05.816Z,6.60
2023-01-31T01:54:10.300Z,6.60
2023-01-31T01:59:12.192Z,6.50
2023-01-31T02:04:17.825Z,6.50
2023-01-31T02:09:23.581Z,6.50
2023-01-31T02:14:22.680Z,6.40
2023-01-31T02:19:39.297Z,6.80
2023-01-31T02:25:12.430Z,6.60
2023-01-31T02:30:43.800Z,6.30
2023-01-31T02:35:54.586Z,6.50
2023-01-31T02:41:00.121Z,6.60
2023-01-31T02:46:08.993Z,6.40
2023-01-31T02:51:16.097Z,6.50
2023-01-31T02:56:21.361Z,6.50
2023-01-31T03:01:25.114Z,6.50
2023-01-31T03:07:02.037Z,6.50
2023-01-31T03:12:20.518Z,6.60
2023-01-31T03:17:36.311Z,6.70
2023-01-31T03:22:38.496Z,6.70
2023-01-31T03:27:37.750Z,7.10
2023-01-31T03:32:43.176Z,6.80
2023-01-31T03:37:50.395Z,6.80
2023-01-31T03:42:58.686Z,7.00
2023-01-31T03:48:00.511Z,6.80
2023-01-31T03:53:04.261Z,7.00
2023-01-31T03:58:07.436Z,7.10
2023-01-31T04:03:12.601Z,6.80
2023-01-31T04:08:13.276Z,7.00
2023-01-31T04:13:15.111Z,6.90
2023-01-31T04:18:14.147Z,6.80
2023-01-31T04:23:14.038Z,6.90
2023-01-31T04:28:12.164Z,6.80
2023-01-31T04:33:11.039Z,6.80
2023-01-31T04:38:10.019Z,6.80
2023-01-31T04:43:09.920Z,7.00
2023-01-31T04:48:08.876Z,6.80
2023-01-31T04:53:09.476Z,6.90
2023-01-31T04:58:09.906Z,6.70
2023-01-31T05:03:08.568Z,6.70
2023-01-31T05:08:07.745Z,6.70
2023-01-31T05:13:06.361Z,6.90
2023-01-31T05:18:06.687Z,6.80
2023-01-31T05:23:05.234Z,6.70
2023-01-31T05:28:04.462Z,6.70
2023-01-31T05:33:03.222Z,6.70
2023-01-31T05:38:03.426Z,6.70
2023-01-31T05:43:02.193Z,7.10
2023-01-31T05:48:01.474Z,6.80
2023-01-31T05:53:01.099Z,7.20
2023-01-31T05:58:01.539Z,6.80
2023-01-31T06:03:00.323Z,6.80
2023-01-31T06:07:59.082Z,6.90
2023-01-31T06:12:57.664Z,6.80
2023-01-31T06:17:58.055Z,6.90
2023-01-31T06:22:56.258Z,7.10
2023-01-31T06:27:56.857Z,7.20
2023-01-31T06:32:54.995Z,6.90
2023-01-31T06:37:55.941Z,6.90
2023-01-31T06:42:54.465Z,7.10
2023-01-31T06:47:52.955Z,7.10
2023-01-31T06:52:51.412Z,7.00
2023-01-31T06:57:51.370Z,7.20
2023-01-31T07:02:50.393Z,6.90
2023-01-31T07:07:50.144Z,7.20
2023-01-31T07:12:48.621Z,6.90
2023-01-31T07:17:48.176Z,7.00
2023-01-31T07:22:46.633Z,7.00
2023-01-31T07:27:45.093Z,6.90
2023-01-31T07:32:43.592Z,6.90
2023-01-31T07:37:43.601Z,7.00
2023-01-31T07:42:42.882Z,7.00
2023-01-31T07:47:41.517Z,7.00
2023-01-31T07:52:40.052Z,7.00
2023-01-31T07:57:40.307Z,7.10
2023-01-31T08:02:56.218Z,7.10
2023-01-31T08:08:10.755Z,7.10
2023-01-31T08:13:11.784Z,7.00
2023-01-31T08:18:10.689Z,7.10
2023-01-31T08:23:09.143Z,7.10
2023-01-31T08:28:07.259Z,7.20
2023-01-31T08:33:07.066Z,7.60
2023-01-31T08:38:16.139Z,7.30
2023-01-31T08:43:15.924Z,7.30
2023-01-31T08:48:15.824Z,7.60
2023-01-31T08:53:14.346Z,7.40
2023-01-31T08:58:13.417Z,7.50
2023-01-31T09:03:18.292Z,7.40
2023-01-31T09:08:16.569Z,7.50
2023-01-31T09:13:15.391Z,7.50
2023-01-31T09:18:15.812Z,7.50
2023-01-31T09:23:14.311Z,7.50
2023-01-31T09:28:12.810Z,7.50
2023-01-31T09:33:11.311Z,7.60
2023-01-31T09:38:11.684Z,7.60
2023-01-31T09:43:14.232Z,7.70
2023-01-31T09:48:19.938Z,7.70
2023-01-31T09:53:23.079Z,7.80
2023-01-31T09:58:28.243Z,7.80
2023-01-31T10:04:04.968Z,7.70
2023-01-31T10:09:12.166Z,7.70
2023-01-31T10:14:22.747Z,7.70
2023-01-31T10:19:27.015Z,8.10
2023-01-31T10:24:31.709Z,7.80
2023-01-31T10:29:36.738Z,7.80
2023-01-31T10:34:41.758Z,7.80
2023-01-31T10:39:45.195Z,8.20
2023-01-31T10:44:53.733Z,7.90
2023-01-31T10:49:52.644Z,7.90
2023-01-31T10:55:04.336Z,8.20
2023-01-31T11:00:03.319Z,7.90
2023-01-31T11:05:02.539Z,7.90
2023-01-31T11:10:23.626Z,7.80
2023-01-31T11:15:25.182Z,7.80
2023-01-31T11:20:26.149Z,8.00
2023-01-31T11:25:27.727Z,7.80
2023-01-31T11:30:29.778Z,7.80
2023-01-31T11:35:30.607Z,7.90
2023-01-31T11:40:33.931Z,7.90
2023-01-31T11:45:34.492Z,7.90
2023-01-31T11:50:35.270Z,7.90
2023-01-31T11:55:40.545Z,7.90
2023-01-31T12:00:53.293Z,7.90
2023-01-31T12:05:53.182Z,8.00
2023-01-31T12:10:52.746Z,8.40
2023-01-31T12:15:58.270Z,8.00
2023-01-31T12:21:04.236Z,8.20
2023-01-31T12:26:10.810Z,8.40
2023-01-31T12:31:33.344Z,8.10
2023-01-31T12:36:43.220Z,8.20
2023-01-31T12:41:51.044Z,8.20
2023-01-31T12:47:11.644Z,8.30
2023-01-31T12:52:19.265Z,8.30
2023-01-31T12:57:33.913Z,8.50
2023-01-31T13:02:44.205Z,8.30
2023-01-31T13:07:47.771Z,8.30
2023-01-31T13:12:48.136Z,8.40
2023-01-31T13:18:04.576Z,8.50
2023-01-31T13:23:07.964Z,8.40
2023-01-31T13:28:16.725Z,8.40
2023-01-31T13:33:25.150Z,8.40
2023-01-31T13:38:26.011Z,8.60
2023-01-31T13:43:25.941Z,8.60
2023-01-31T13:48:29.228Z,8.50
2023-01-31T13:53:32.705Z,8.50
2023-01-31T13:58:35.312Z,8.60
2023-01-31T14:04:12.128Z,8.60
2023-01-31T14:09:24.690Z,8.60
2023-01-31T14:14:39.515Z,8.70
2023-01-31T14:26:52.549Z,8.70
2023-01-31T14:31:55.040Z,8.70
2023-01-31T14:37:09.640Z,8.70
2023-01-31T14:42:37.490Z,9.00
2023-01-31T14:47:54.165Z,8.80
2023-01-31T14:53:06.124Z,8.80
2023-01-31T14:58:07.483Z,8.90
2023-01-31T15:03:17.359Z,8.90
2023-01-31T15:08:47.398Z,8.90
2023-01-31T15:13:48.868Z,8.90
2023-01-31T15:18:53.015Z,8.90
2023-01-31T15:23:52.877Z,8.80
2023-01-31T15:28:53.496Z,8.80
2023-01-31T15:33:55.389Z,8.80
2023-01-31T15:38:57.221Z,8.80
2023-01-31T15:43:57.178Z,8.80
2023-01-31T15:48:57.294Z,8.80
2023-01-31T15:54:03.582Z,8.90
2023-01-31T15:59:05.343Z,8.90
2023-01-31T16:04:05.338Z,8.80
2023-01-31T16:09:06.526Z,8.80
2023-01-31T16:14:08.235Z,8.80
2023-01-31T16:19:08.336Z,8.80
2023-01-31T16:24:15.405Z,8.80
2023-01-31T16:29:17.175Z,8.80
2023-01-31T16:34:29.093Z,9.10
2023-01-31T16:39:39.140Z,8.80
2023-01-31T16:44:42.786Z,8.80
2023-01-31T16:49:43.725Z,8.80
2023-01-31T16:54:46.493Z,8.90
2023-01-31T16:59:51.343Z,9.10
2023-01-31T17:04:53.435Z,8.80
2023-01-31T17:09:56.925Z,8.70
2023-01-31T17:15:01.579Z,8.70
2023-01-31T17:20:02.623Z,8.60
2023-01-31T17:25:01.178Z,8.50
2023-01-31T17:29:59.932Z,8.50
2023-01-31T17:34:58.399Z,8.50
2023-01-31T17:39:57.988Z,8.50
2023-01-31T17:44:56.498Z,8.50
2023-01-31T17:49:55.228Z,8.60
2023-01-31T17:54:53.758Z,8.30
2023-01-31T17:59:53.313Z,8.20
2023-01-31T18:04:51.831Z,8.10
2023-01-31T18:09:51.171Z,8.00
2023-01-31T18:14:49.820Z,8.10
2023-01-31T18:19:49.775Z,7.90
2023-01-31T18:24:49.037Z,7.90
2023-01-31T18:29:47.589Z,7.90
2023-01-31T18:34:46.228Z,7.90
2023-01-31T18:39:46.061Z,7.90
2023-01-31T18:51:14.160Z,7.80
2023-01-31T18:56:16.847Z,7.80
2023-01-31T19:01:17.413Z,7.80
2023-01-31T19:06:17.758Z,7.80
2023-01-31T19:11:19.042Z,7.70
2023-01-31T19:16:19.107Z,7.60
2023-01-31T19:21:19.183Z,7.60
2023-01-31T19:26:19.617Z,7.70
2023-01-31T19:31:19.860Z,8.00
2023-01-31T19:36:19.616Z,7.70
2023-01-31T19:41:22.445Z,7.90
2023-01-31T19:46:21.698Z,7.70
2023-01-31T19:51:22.163Z,7.90
2023-01-31T19:56:22.347Z,7.60
2023-01-31T20:01:21.168Z,7.60
2023-01-31T20:06:21.521Z,7.60
2023-01-31T20:11:21.916Z,7.60
2023-01-31T20:16:21.405Z,7.50
2023-01-31T20:21:21.506Z,7.60
2023-01-31T20:26:24.678Z,7.70
2023-01-31T20:31:23.493Z,7.80
2023-01-31T20:36:23.963Z,7.90
2023-01-31T20:41:23.933Z,7.90
2023-01-31T20:46:22.468Z,7.80
2023-01-31T20:51:20.656Z,7.80
2023-01-31T20:56:19.623Z,7.80
2023-01-31T21:01:19.538Z,7.70
2023-01-31T21:06:18.100Z,7.70
2023-01-31T21:11:16.722Z,7.70
2023-01-31T21:16:17.010Z,7.70
2023-01-31T21:21:23.257Z,7.70
2023-01-31T21:26:24.972Z,7.60
2023-01-31T21:31:25.037Z,7.60
2023-01-31T21:36:26.888Z,7.80
2023-01-31T21:41:54.653Z,7.70
2023-01-31T21:46:52.859Z,7.60
2023-01-31T21:51:52.741Z,7.60
2023-01-31T21:56:51.277Z,7.50
2023-01-31T22:01:52.082Z,7.50
2023-01-31T22:06:53.505Z,7.50
2023-01-31T22:11:53.557Z,7.50
2023-01-31T22:16:53.229Z,7.50
2023-01-31T22:21:53.204Z,7.50
2023-01-31T22:26:52.149Z,7.40
2023-01-31T22:31:50.825Z,7.40
2023-01-31T22:36:49.376Z,7.40
2023-01-31T22:41:49.295Z,7.40
2023-01-31T22:46:47.883Z,7.40
2023-01-31T22:51:46.442Z,7.40
2023-01-31T22:56:44.984Z,7.30
2023-01-31T23:01:44.529Z,7.20
2023-01-31T23:06:43.030Z,7.60
2023-01-31T23:11:41.691Z,7.30
2023-01-31T23:16:57.392Z,7.20
2023-01-31T23:21:57.321Z,7.20
2023-01-31T23:26:56.466Z,7.20
2023-01-31T23:31:55.065Z,7.20
2023-01-31T23:36:53.649Z,7.10
2023-01-31T23:41:53.476Z,7.10
2023-01-31T23:46:51.964Z,7.10
2023-01-31T23:51:50.472Z,7.20
2023-01-31T23:56:48.680Z,7.30
